createdAt,value
2023-06-02T00:01:53.318Z,99.90
2023-06-02T00:04:25.414Z,99.90
2023-06-02T00:06:54.755Z,99.90
2023-06-02T00:09:22.156Z,99.90
2023-06-02T00:11:49.421Z,99.90
2023-06-02T00:14:16.731Z,99.90
2023-06-02T00:16:46.738Z,99.90
2023-06-02T00:19:15.598Z,99.90
2023-06-02T00:21:43.478Z,99.90
2023-06-02T00:24:10.910Z,99.90
2023-06-02T00:26:38.863Z,99.90
2023-06-02T00:29:06.363Z,99.90
2023-06-02T00:31:36.052Z,99.90
2023-06-02T00:34:03.677Z,99.90
2023-06-02T00:36:30.870Z,99.90
2023-06-02T00:38:58.278Z,99.90
2023-06-02T00:41:27.144Z,99.90
2023-06-02T00:44:00.029Z,99.90
2023-06-02T00:46:27.403Z,99.90
2023-06-02T00:48:54.645Z,99.90
2023-06-02T00:51:22.126Z,99.90
2023-06-02T00:53:49.353Z,99.90
2023-06-02T00:56:18.930Z,99.90
2023-06-02T00:58:46.778Z,99.90
2023-06-02T01:01:14.259Z,99.90
2023-06-02T01:03:44.587Z,99.90
2023-06-02T01:06:16.831Z,99.90
2023-06-02T01:08:46.166Z,99.90
2023-06-02T01:11:13.920Z,99.90
2023-06-02T01:13:42.322Z,99.90
2023-06-02T01:16:14.708Z,99.90
2023-06-02T01:18:48.140Z,99.90
2023-06-02T01:21:22.940Z,99.90
2023-06-02T01:23:55.685Z,99.90
2023-06-02T01:26:23.045Z,99.90
2023-06-02T01:28:51.596Z,99.90
2023-06-02T01:31:27.635Z,99.90
2023-06-02T01:34:02.659Z,99.90
2023-06-02T01:36:34.355Z,99.90
2023-06-02T01:39:03.826Z,99.90
2023-06-02T01:41:34.173Z,99.90
2023-06-02T01:44:04.246Z,99.90
2023-06-02T01:46:31.613Z,99.90
2023-06-02T01:48:58.824Z,99.90
2023-06-02T01:51:26.414Z,99.90
2023-06-02T01:53:53.632Z,99.90
2023-06-02T01:56:21.716Z,99.90
2023-06-02T01:58:54.215Z,99.90
2023-06-02T02:01:22.946Z,99.90
2023-06-02T02:03:51.886Z,99.90
2023-06-02T02:06:20.011Z,99.90
2023-06-02T02:08:47.186Z,99.90
2023-06-02T02:11:14.421Z,99.90
2023-06-02T02:13:41.776Z,99.90
2023-06-02T02:16:10.126Z,99.90
2023-06-02T02:18:39.370Z,99.90
2023-06-02T02:21:07.808Z,99.90
2023-06-02T02:23:35.123Z,99.90
2023-06-02T02:26:02.524Z,99.90
2023-06-02T02:28:31.285Z,99.90
2023-06-02T02:31:00.203Z,99.90
2023-06-02T02:33:29.483Z,99.90
2023-06-02T02:35:56.957Z,99.90
2023-06-02T02:38:26.219Z,99.90
2023-06-02T02:40:53.887Z,99.90
2023-06-02T02:43:23.192Z,99.90
2023-06-02T02:45:52.251Z,99.90
2023-06-02T02:48:19.815Z,99.90
2023-06-02T02:50:47.651Z,99.90
2023-06-02T02:53:17.318Z,99.90
2023-06-02T02:55:45.597Z,99.90
2023-06-02T02:58:20.183Z,99.90
2023-06-02T03:00:47.977Z,99.90
2023-06-02T03:03:15.664Z,99.90
2023-06-02T03:05:43.257Z,99.90
2023-06-02T03:08:14.063Z,99.90
2023-06-02T03:10:42.531Z,99.90
2023-06-02T03:13:09.716Z,99.90
2023-06-02T03:15:37.886Z,99.90
2023-06-02T03:18:06.433Z,99.90
2023-06-02T03:20:34.111Z,99.90
2023-06-02T03:23:02.012Z,99.90
2023-06-02T03:25:29.810Z,99.90
2023-06-02T03:27:57.763Z,99.90
2023-06-02T03:30:25.185Z,99.90
2023-06-02T03:32:58.017Z,99.90
2023-06-02T03:35:28.170Z,99.90
2023-06-02T03:37:56.779Z,99.90
2023-06-02T03:40:25.563Z,99.90
2023-06-02T03:42:53.639Z,99.90
2023-06-02T03:45:21.310Z,99.90
2023-06-02T03:47:48.989Z,99.90
2023-06-02T03:50:18.375Z,99.90
2023-06-02T03:52:45.985Z,99.90
2023-06-02T03:55:14.626Z,99.90
2023-06-02T03:57:44.250Z,99.90
2023-06-02T04:00:12.631Z,99.90
2023-06-02T04:02:42.814Z,99.90
2023-06-02T04:05:15.869Z,99.90
2023-06-02T04:07:44.503Z,99.90
2023-06-02T04:10:12.007Z,99.90
2023-06-02T04:12:39.460Z,99.90
2023-06-02T04:15:07.844Z,99.90
2023-06-02T04:17:35.196Z,99.90
2023-06-02T04:20:03.023Z,99.90
2023-06-02T04:22:32.757Z,99.90
2023-06-02T04:24:59.959Z,99.90
2023-06-02T04:27:27.173Z,99.90
2023-06-02T04:29:54.590Z,99.90
2023-06-02T04:32:22.206Z,99.90
2023-06-02T04:34:52.131Z,99.90
2023-06-02T04:37:21.048Z,99.90
2023-06-02T04:39:54.445Z,99.90
2023-06-02T04:42:23.804Z,99.90
2023-06-02T04:44:52.877Z,99.90
2023-06-02T04:47:20.719Z,99.90
2023-06-02T04:49:48.104Z,99.90
2023-06-02T04:52:15.466Z,99.90
2023-06-02T04:54:44.540Z,99.90
2023-06-02T04:57:12.630Z,99.90
2023-06-02T04:59:40.771Z,99.90
2023-06-02T05:02:08.328Z,99.90
2023-06-02T05:04:37.106Z,99.90
2023-06-02T05:07:05.963Z,99.90
2023-06-02T05:09:33.206Z,99.90
2023-06-02T05:12:01.081Z,99.90
2023-06-02T05:14:29.183Z,99.90
2023-06-02T05:16:57.331Z,99.90
2023-06-02T05:19:24.661Z,99.90
2023-06-02T05:21:52.057Z,99.90
2023-06-02T05:24:19.574Z,99.90
2023-06-02T05:26:46.850Z,99.80
2023-06-02T05:29:15.597Z,99.60
2023-06-02T05:31:43.473Z,99.40
2023-06-02T05:34:12.274Z,98.30
2023-06-02T05:36:39.553Z,98.60
2023-06-02T05:39:08.189Z,98.50
2023-06-02T05:41:36.517Z,98.10
2023-06-02T05:44:03.982Z,98.00
2023-06-02T05:46:31.875Z,98.40
2023-06-02T05:49:08.099Z,98.10
2023-06-02T05:51:36.827Z,97.70
2023-06-02T05:54:07.699Z,97.80
2023-06-02T05:56:35.320Z,98.20
2023-06-02T05:59:02.959Z,97.70
2023-06-02T06:01:31.901Z,97.60
2023-06-02T06:03:59.601Z,96.70
2023-06-02T06:06:28.780Z,96.70
2023-06-02T06:08:56.172Z,96.30
2023-06-02T06:11:23.979Z,95.80
2023-06-02T06:13:51.565Z,95.70
2023-06-02T06:16:18.998Z,94.60
2023-06-02T06:18:46.278Z,94.20
2023-06-02T06:21:14.509Z,93.40
2023-06-02T06:23:42.643Z,93.20
2023-06-02T06:26:11.130Z,92.60
2023-06-02T06:28:38.957Z,92.50
2023-06-02T06:31:06.340Z,93.20
2023-06-02T06:33:33.832Z,92.50
2023-06-02T06:36:01.636Z,92.30
2023-06-02T06:38:29.585Z,91.80
2023-06-02T06:40:57.598Z,93.10
2023-06-02T06:43:25.742Z,92.10
2023-06-02T06:46:00.690Z,92.00
2023-06-02T06:48:30.176Z,92.90
2023-06-02T06:50:57.833Z,91.70
2023-06-02T06:53:25.158Z,91.90
2023-06-02T06:55:52.627Z,92.00
2023-06-02T06:58:19.940Z,92.10
2023-06-02T07:00:47.474Z,92.40
2023-06-02T07:03:14.908Z,93.00
2023-06-02T07:05:44.896Z,92.60
2023-06-02T07:08:12.497Z,91.60
2023-06-02T07:10:40.271Z,92.70
2023-06-02T07:13:07.638Z,91.80
2023-06-02T07:15:35.006Z,90.80
2023-06-02T07:18:02.512Z,91.30
2023-06-02T07:20:29.806Z,91.60
2023-06-02T07:22:57.199Z,91.60
2023-06-02T07:25:25.724Z,91.30
2023-06-02T07:27:54.871Z,90.50
2023-06-02T07:30:22.322Z,90.90
2023-06-02T07:32:49.622Z,91.30
2023-06-02T07:35:17.429Z,90.60
2023-06-02T07:37:44.769Z,91.40
2023-06-02T07:40:12.447Z,90.80
2023-06-02T07:42:40.189Z,90.40
2023-06-02T07:45:08.362Z,90.10
2023-06-02T07:47:35.764Z,90.60
2023-06-02T07:50:04.446Z,91.00
2023-06-02T07:52:31.816Z,88.80
2023-06-02T07:54:59.105Z,90.30
2023-06-02T07:57:26.393Z,89.40
2023-06-02T07:59:55.428Z,90.40
2023-06-02T08:02:23.693Z,89.50
2023-06-02T08:04:51.453Z,88.60
2023-06-02T08:07:19.842Z,88.90
2023-06-02T08:09:47.109Z,88.90
2023-06-02T08:12:14.457Z,89.50
2023-06-02T08:14:43.881Z,90.30
2023-06-02T08:17:11.518Z,88.30
2023-06-02T08:19:38.774Z,90.00
2023-06-02T08:22:06.338Z,87.20
2023-06-02T08:24:33.700Z,88.20
2023-06-02T08:27:02.043Z,86.10
2023-06-02T08:29:31.372Z,88.20
2023-06-02T08:31:58.918Z,87.10
2023-06-02T08:34:27.203Z,89.30
2023-06-02T08:36:59.067Z,85.20
2023-06-02T08:39:27.661Z,86.50
2023-06-02T08:42:01.465Z,87.00
2023-06-02T08:44:30.794Z,87.20
2023-06-02T08:46:59.049Z,85.40
2023-06-02T08:49:29.080Z,85.10
2023-06-02T08:52:03.251Z,85.00
2023-06-02T08:54:34.634Z,85.50
2023-06-02T08:57:05.827Z,85.60
2023-06-02T08:59:33.735Z,86.00
2023-06-02T09:02:02.251Z,84.60
2023-06-02T09:04:30.172Z,84.40
2023-06-02T09:07:13.141Z,86.90
2023-06-02T09:09:45.944Z,85.40
2023-06-02T09:12:14.068Z,85.60
2023-06-02T09:14:41.968Z,87.90
2023-06-02T09:17:29.866Z,82.80
2023-06-02T09:20:11.624Z,83.50
2023-06-02T09:22:57.859Z,84.70
2023-06-02T09:25:30.301Z,82.30
2023-06-02T09:27:59.315Z,82.60
2023-06-02T09:30:27.966Z,82.10
2023-06-02T09:33:16.199Z,86.80
2023-06-02T09:35:46.059Z,84.60
2023-06-02T09:38:16.587Z,81.00
2023-06-02T09:40:45.184Z,89.10
2023-06-02T09:43:14.647Z,82.90
2023-06-02T09:45:51.326Z,88.50
2023-06-02T09:48:20.432Z,84.60
2023-06-02T09:50:48.113Z,84.10
2023-06-02T09:53:17.421Z,90.00
2023-06-02T09:55:47.152Z,85.40
2023-06-02T09:58:14.605Z,85.80
2023-06-02T10:00:42.479Z,82.80
2023-06-02T10:03:10.459Z,88.90
2023-06-02T10:05:40.606Z,83.80
2023-06-02T10:08:49.899Z,81.40
2023-06-02T10:11:30.309Z,85.80
2023-06-02T10:14:17.483Z,84.60
2023-06-02T10:17:14.719Z,86.90
2023-06-02T10:19:57.233Z,81.90
2023-06-02T10:22:47.287Z,86.30
2023-06-02T10:25:17.546Z,81.70
2023-06-02T10:27:45.907Z,84.50
2023-06-02T10:30:19.302Z,85.50
2023-06-02T10:32:50.402Z,80.90
2023-06-02T10:35:19.727Z,81.30
2023-06-02T10:37:47.098Z,82.60
2023-06-02T10:40:16.736Z,81.10
2023-06-02T10:43:19.627Z,78.40
2023-06-02T10:45:47.032Z,79.00
2023-06-02T10:48:39.946Z,76.90
2023-06-02T10:51:09.181Z,79.90
2023-06-02T10:54:08.631Z,81.10
2023-06-02T10:56:45.282Z,79.40
2023-06-02T10:59:32.825Z,82.10
2023-06-02T11:02:01.808Z,82.50
2023-06-02T11:04:36.832Z,83.20
2023-06-02T11:07:22.834Z,80.10
2023-06-02T11:10:01.671Z,81.00
2023-06-02T11:12:55.687Z,80.90
2023-06-02T11:15:23.236Z,75.60
2023-06-02T11:17:50.623Z,78.00
2023-06-02T11:20:19.921Z,76.50
2023-06-02T11:22:48.217Z,81.30
2023-06-02T11:25:17.787Z,78.10
2023-06-02T11:27:49.142Z,80.10
2023-06-02T11:30:19.701Z,76.80
2023-06-02T11:32:52.994Z,78.80
2023-06-02T11:35:27.075Z,77.70
2023-06-02T11:38:12.742Z,79.50
2023-06-02T11:40:40.222Z,71.40
2023-06-02T11:43:07.617Z,72.90
2023-06-02T11:45:36.400Z,74.70
2023-06-02T11:48:12.834Z,76.40
2023-06-02T11:50:40.418Z,76.40
2023-06-02T11:53:16.746Z,73.70
2023-06-02T11:55:44.721Z,73.80
2023-06-02T11:58:28.781Z,72.70
2023-06-02T12:01:11.458Z,70.20
2023-06-02T12:03:38.775Z,68.70
2023-06-02T12:06:14.915Z,68.70
2023-06-02T12:08:43.707Z,70.10
2023-06-02T12:11:18.781Z,70.80
2023-06-02T12:14:03.159Z,69.00
2023-06-02T12:16:31.357Z,70.80
2023-06-02T12:19:22.264Z,72.10
2023-06-02T12:21:55.096Z,69.10
2023-06-02T12:24:40.222Z,70.50
2023-06-02T12:27:08.948Z,72.60
2023-06-02T12:29:37.684Z,73.10
2023-06-02T12:32:09.115Z,74.40
2023-06-02T12:34:36.400Z,71.40
2023-06-02T12:37:04.138Z,68.10
2023-06-02T12:39:32.345Z,65.30
2023-06-02T12:42:00.405Z,72.40
2023-06-02T12:44:27.968Z,73.50
2023-06-02T12:46:56.342Z,67.90
2023-06-02T12:49:23.882Z,67.40
2023-06-02T12:51:51.204Z,63.10
2023-06-02T12:54:18.607Z,62.60
2023-06-02T12:56:46.070Z,62.30
2023-06-02T12:59:14.975Z,59.40
2023-06-02T13:01:43.776Z,59.30
2023-06-02T13:04:12.359Z,57.40
2023-06-02T13:06:40.071Z,58.60
2023-06-02T13:09:07.493Z,58.30
2023-06-02T13:11:34.684Z,58.10
2023-06-02T13:14:02.053Z,58.40
2023-06-02T13:16:29.558Z,59.30
2023-06-02T13:18:57.873Z,57.50
2023-06-02T13:21:25.190Z,56.10
2023-06-02T13:23:58.695Z,57.40
2023-06-02T13:26:27.776Z,60.80
2023-06-02T13:28:54.914Z,60.50
2023-06-02T13:31:22.248Z,59.00
2023-06-02T13:33:50.719Z,64.10
2023-06-02T13:36:18.101Z,63.30
2023-06-02T13:38:46.797Z,62.40
2023-06-02T13:41:14.136Z,60.00
2023-06-02T13:43:41.395Z,61.00
2023-06-02T13:46:08.988Z,63.40
2023-06-02T13:48:36.987Z,58.00
2023-06-02T13:51:06.212Z,57.60
2023-06-02T13:53:34.299Z,59.20
2023-06-02T13:56:01.742Z,57.90
2023-06-02T13:58:33.245Z,53.20
2023-06-02T14:01:00.648Z,57.20
2023-06-02T14:03:27.995Z,52.20
2023-06-02T14:05:55.898Z,57.50
2023-06-02T14:08:23.187Z,54.80
2023-06-02T14:10:50.810Z,54.70
2023-06-02T14:13:18.460Z,52.80
2023-06-02T14:15:46.344Z,55.20
2023-06-02T14:18:13.943Z,53.70
2023-06-02T14:20:41.384Z,52.10
2023-06-02T14:23:08.596Z,51.50
2023-06-02T14:25:35.947Z,52.80
2023-06-02T14:28:03.577Z,53.40
2023-06-02T14:30:30.971Z,59.20
2023-06-02T14:32:58.256Z,53.70
2023-06-02T14:35:26.381Z,52.10
2023-06-02T14:37:53.738Z,50.10
2023-06-02T14:40:21.795Z,57.00
2023-06-02T14:42:49.069Z,54.50
2023-06-02T14:45:16.336Z,55.10
2023-06-02T14:47:43.742Z,53.30
2023-06-02T14:50:11.484Z,54.50
2023-06-02T14:52:38.874Z,52.50
2023-06-02T14:55:07.385Z,53.40
2023-06-02T14:57:34.879Z,52.20
2023-06-02T15:00:02.213Z,51.20
2023-06-02T15:02:29.846Z,52.90
2023-06-02T15:04:57.248Z,51.90
2023-06-02T15:07:24.742Z,53.20
2023-06-02T15:09:52.065Z,56.30
2023-06-02T15:12:19.443Z,55.10
2023-06-02T15:14:46.950Z,55.10
2023-06-02T15:17:14.392Z,52.80
2023-06-02T15:19:42.480Z,52.60
2023-06-02T15:22:10.170Z,53.70
2023-06-02T15:24:37.647Z,52.80
2023-06-02T15:27:06.504Z,53.60
2023-06-02T15:29:34.137Z,53.60
2023-06-02T15:32:01.510Z,52.90
2023-06-02T15:34:28.805Z,53.70
2023-06-02T15:36:56.290Z,52.60
2023-06-02T15:39:23.783Z,52.30
2023-06-02T15:41:51.179Z,52.80
2023-06-02T15:44:18.744Z,52.50
2023-06-02T15:46:46.192Z,54.10
2023-06-02T15:49:13.394Z,53.80
2023-06-02T15:51:40.864Z,53.40
2023-06-02T15:54:08.160Z,54.60
2023-06-02T15:56:35.819Z,54.50
2023-06-02T15:59:03.117Z,54.40
2023-06-02T16:01:30.975Z,55.30
2023-06-02T16:03:58.557Z,56.40
2023-06-02T16:06:26.323Z,57.20
2023-06-02T16:08:53.571Z,56.80
2023-06-02T16:11:20.816Z,55.80
2023-06-02T16:13:48.171Z,55.10
2023-06-02T16:16:15.603Z,56.30
2023-06-02T16:18:42.890Z,56.20
2023-06-02T16:21:10.326Z,59.20
2023-06-02T16:23:37.674Z,64.10
2023-06-02T16:26:06.795Z,66.30
2023-06-02T16:28:34.478Z,68.50
2023-06-02T16:31:03.001Z,68.50
2023-06-02T16:33:30.493Z,69.40
2023-06-02T16:35:57.971Z,69.80
2023-06-02T16:38:25.320Z,71.40
2023-06-02T16:40:54.186Z,70.80
2023-06-02T16:43:21.503Z,72.70
2023-06-02T16:45:50.156Z,73.90
2023-06-02T16:48:17.753Z,75.30
2023-06-02T16:50:45.546Z,75.80
2023-06-02T16:53:12.808Z,76.10
2023-06-02T16:55:40.075Z,77.10
2023-06-02T16:58:07.412Z,77.20
2023-06-02T17:00:34.770Z,78.20
2023-06-02T17:03:02.206Z,78.00
2023-06-02T17:05:29.778Z,78.60
2023-06-02T17:07:57.714Z,79.30
2023-06-02T17:10:25.049Z,80.20
2023-06-02T17:12:52.531Z,80.30
2023-06-02T17:15:19.910Z,80.30
2023-06-02T17:17:47.279Z,80.80
2023-06-02T17:20:14.845Z,80.30
2023-06-02T17:22:42.180Z,81.10
2023-06-02T17:25:10.384Z,81.70
2023-06-02T17:27:39.187Z,80.80
2023-06-02T17:30:08.370Z,81.60
2023-06-02T17:32:37.512Z,81.40
2023-06-02T17:35:05.284Z,82.60
2023-06-02T17:37:34.312Z,81.60
2023-06-02T17:40:06.186Z,82.10
2023-06-02T17:42:34.156Z,81.90
2023-06-02T17:45:02.323Z,81.70
2023-06-02T17:47:29.588Z,81.90
2023-06-02T17:49:57.195Z,81.50
2023-06-02T17:52:25.469Z,81.80
2023-06-02T17:54:53.280Z,82.10
2023-06-02T17:57:21.244Z,82.10
2023-06-02T17:59:51.487Z,82.90
2023-06-02T18:02:19.886Z,82.60
2023-06-02T18:04:48.292Z,83.60
2023-06-02T18:07:15.685Z,83.10
2023-06-02T18:09:42.988Z,83.50
2023-06-02T18:12:10.482Z,83.50
2023-06-02T18:14:37.778Z,83.90
2023-06-02T18:17:05.355Z,84.60
2023-06-02T18:19:35.321Z,84.00
2023-06-02T18:22:02.871Z,84.00
2023-06-02T18:24:31.436Z,84.60
2023-06-02T18:27:00.322Z,83.10
2023-06-02T18:29:28.445Z,83.30
2023-06-02T18:31:55.818Z,83.90
2023-06-02T18:34:23.131Z,83.50
2023-06-02T18:36:50.387Z,85.00
2023-06-02T18:39:17.593Z,84.40
2023-06-02T18:41:45.363Z,84.60
2023-06-02T18:44:12.587Z,84.20
2023-06-02T18:46:40.022Z,83.50
2023-06-02T18:49:07.483Z,84.70
2023-06-02T18:51:35.344Z,84.20
2023-06-02T18:54:02.759Z,82.20
2023-06-02T18:56:30.169Z,81.90
2023-06-02T18:58:57.536Z,82.30
2023-06-02T19:01:27.700Z,82.70
2023-06-02T19:03:56.188Z,82.80
2023-06-02T19:06:23.635Z,83.60
2023-06-02T19:08:50.920Z,83.60
2023-06-02T19:11:19.315Z,82.30
2023-06-02T19:13:47.250Z,83.10
2023-06-02T19:16:15.232Z,82.60
2023-06-02T19:18:43.861Z,81.10
2023-06-02T19:21:11.889Z,81.00
2023-06-02T19:23:39.579Z,79.30
2023-06-02T19:26:07.113Z,79.50
2023-06-02T19:28:34.626Z,78.40
2023-06-02T19:31:03.013Z,78.60
2023-06-02T19:33:30.276Z,78.10
2023-06-02T19:35:57.702Z,77.90
2023-06-02T19:38:26.867Z,77.40
2023-06-02T19:40:54.187Z,77.50
2023-06-02T19:43:21.576Z,78.20
2023-06-02T19:45:48.959Z,77.40
2023-06-02T19:48:17.007Z,76.70
2023-06-02T19:50:44.386Z,76.50
2023-06-02T19:53:11.658Z,76.40
2023-06-02T19:55:39.207Z,75.80
2023-06-02T19:58:07.035Z,76.80
2023-06-02T20:00:34.430Z,76.50
2023-06-02T20:03:01.940Z,77.50
2023-06-02T20:05:29.539Z,78.10
2023-06-02T20:07:56.857Z,77.50
2023-06-02T20:10:25.086Z,78.60
2023-06-02T20:12:52.377Z,77.90
2023-06-02T20:15:19.712Z,77.50
2023-06-02T20:17:46.975Z,78.80
2023-06-02T20:20:14.650Z,76.90
2023-06-02T20:22:42.074Z,77.80
2023-06-02T20:25:09.479Z,78.00
2023-06-02T20:27:36.760Z,79.00
2023-06-02T20:30:05.111Z,77.90
2023-06-02T20:32:32.394Z,77.80
2023-06-02T20:34:59.891Z,78.10
2023-06-02T20:37:27.613Z,78.70
2023-06-02T20:39:54.908Z,79.20
2023-06-02T20:42:22.989Z,79.10
2023-06-02T20:44:50.794Z,79.50
2023-06-02T20:47:18.123Z,79.70
2023-06-02T20:49:45.374Z,79.60
2023-06-02T20:52:12.568Z,80.20
2023-06-02T20:54:39.888Z,80.40
2023-06-02T20:57:08.274Z,80.80
2023-06-02T20:59:35.566Z,81.10
2023-06-02T21:02:02.887Z,81.70
2023-06-02T21:04:30.178Z,82.30
2023-06-02T21:06:58.414Z,82.60
2023-06-02T21:09:26.605Z,82.70
2023-06-02T21:11:55.180Z,82.50
2023-06-02T21:14:22.433Z,83.50
2023-06-02T21:16:49.948Z,83.50
2023-06-02T21:19:17.514Z,84.10
2023-06-02T21:21:44.818Z,84.30
2023-06-02T21:24:12.107Z,84.20
2023-06-02T21:26:39.461Z,84.70
2023-06-02T21:29:06.681Z,84.50
2023-06-02T21:31:34.056Z,84.70
2023-06-02T21:34:01.325Z,85.10
2023-06-02T21:36:28.687Z,84.90
2023-06-02T21:38:56.023Z,85.10
2023-06-02T21:41:23.233Z,85.30
2023-06-02T21:43:50.633Z,85.90
2023-06-02T21:46:18.025Z,85.50
2023-06-02T21:48:45.473Z,85.80
2023-06-02T21:51:15.772Z,85.40
2023-06-02T21:53:43.658Z,85.50
2023-06-02T21:56:10.961Z,85.80
2023-06-02T21:58:38.244Z,86.50
2023-06-02T22:01:06.024Z,86.20
2023-06-02T22:03:33.911Z,86.80
2023-06-02T22:06:01.671Z,87.20
2023-06-02T22:08:28.998Z,87.20
2023-06-02T22:10:58.849Z,88.00
2023-06-02T22:13:26.110Z,87.50
2023-06-02T22:15:53.678Z,88.50
2023-06-02T22:18:21.028Z,88.10
2023-06-02T22:20:48.274Z,88.40
2023-06-02T22:23:15.829Z,88.30
2023-06-02T22:25:43.172Z,88.40
2023-06-02T22:28:11.522Z,89.40
2023-06-02T22:30:38.930Z,89.30
2023-06-02T22:33:06.244Z,90.00
2023-06-02T22:35:33.776Z,89.80
2023-06-02T22:38:01.024Z,89.70
2023-06-02T22:40:28.327Z,90.00
2023-06-02T22:42:55.615Z,90.50
2023-06-02T22:45:24.716Z,90.50
2023-06-02T22:47:52.016Z,90.60
2023-06-02T22:50:19.594Z,90.90
2023-06-02T22:52:46.789Z,91.20
2023-06-02T22:55:14.750Z,91.90
2023-06-02T22:57:42.268Z,91.40
2023-06-02T23:00:10.761Z,91.50
2023-06-02T23:02:38.007Z,92.00
2023-06-02T23:05:06.565Z,91.40
2023-06-02T23:07:33.814Z,91.50
2023-06-02T23:10:01.525Z,91.70
2023-06-02T23:12:28.823Z,91.70
2023-06-02T23:14:56.024Z,91.50
2023-06-02T23:17:24.571Z,91.60
2023-06-02T23:19:52.257Z,91.60
2023-06-02T23:22:19.886Z,91.70
2023-06-02T23:24:47.565Z,92.00
2023-06-02T23:27:15.443Z,92.20
2023-06-02T23:29:42.837Z,92.20
2023-06-02T23:32:10.179Z,92.10
2023-06-02T23:34:38.457Z,92.30
2023-06-02T23:37:06.861Z,92.20
2023-06-02T23:39:34.123Z,92.10
2023-06-02T23:42:01.425Z,91.90
2023-06-02T23:44:28.809Z,92.00
2023-06-02T23:46:56.603Z,92.00
2023-06-02T23:49:23.922Z,91.80
2023-06-02T23:51:53.307Z,91.90
2023-06-02T23:54:20.637Z,91.90
2023-06-02T23:56:48.056Z,91.60
2023-06-02T23:59:15.753Z,91.20
